Time;durP1;ratioP1;P1;durP2;ratioP2;P2;SDS_P1;SDS_P2;PMS_P1;PMS_P2;Temp;Humidity;BMP_temperature;BMP_pressure;BME280_temperature;BME280_humidity;BME280_pressure;Samples;Min_cycle;Max_cycle;Signal;HPM_P1;HPM_P2
2023/05/31 00:00:45;;;;;;;;;;;;;;;16.19;57.72;100749.56;5075486;28;1158;-57
2023/05/31 00:03:11;;;;;;;;;;;;;;;16.28;58.29;100751.78;5075599;28;1058;-56
2023/05/31 00:05:36;;;;;;;;;;;;;;;17.56;58.73;100743.44;5075710;28;1057;-56
2023/05/31 00:08:02;;;;;;;;;;;;;;;16.93;59.25;100752.13;5077320;28;1146;-55
2023/05/31 00:10:27;;;;;;;;;;;;;;;16.58;58.79;100740.84;5075904;28;1906;-55
2023/05/31 00:12:53;;;;;;;;;;;;;;;16.48;57.97;100745.50;5075570;28;1109;-54
2023/05/31 00:15:18;;;;;;;;;;;;;;;16.31;57.63;100751.25;5075380;28;1062;-57
2023/05/31 00:17:44;;;;;;;;;;;;;;;16.16;57.52;100750.13;5075392;28;1142;-56
2023/05/31 00:20:10;;;;;;;;;;;;;;;16.10;57.24;100744.88;5082886;28;1098;-55
2023/05/31 00:22:35;;;;;;;;;;;;;;;16.74;59.26;100749.88;5078168;28;1077;-56
2023/05/31 00:25:01;;;;;;;;;;;;;;;17.42;58.63;100748.69;5058275;28;1094;-57
2023/05/31 00:27:26;;;;;;;;;;;;;;;16.73;59.05;100750.16;5078922;28;1126;-54
2023/05/31 00:29:52;;;;;;;;;;;;;;;16.51;58.51;100747.69;5078815;28;1959;-57
2023/05/31 00:32:17;;;;;;;;;;;;;;;16.40;58.00;100744.94;5061090;28;1221;-56
2023/05/31 00:34:43;;;;;;;;;;;;;;;16.21;57.49;100746.56;5069298;28;1019;-56
2023/05/31 00:37:08;;;;;;;;;;;;;;;16.27;57.76;100755.63;5060713;28;1110;-56
2023/05/31 00:39:34;;;;;;;;;;;;;;;17.53;58.76;100749.50;5078985;28;1081;-56
2023/05/31 00:42:00;;;;;;;;;;;;;;;16.91;59.23;100748.81;5060680;28;1115;-57
2023/05/31 00:44:25;;;;;;;;;;;;;;;16.60;58.87;100752.34;5087149;28;1051;-56
2023/05/31 00:46:50;;;;;;;;;;;;;;;16.40;58.31;100750.44;5081195;28;1367;-56
2023/05/31 00:49:16;;;;;;;;;;;;;;;16.29;57.63;100757.00;5078941;28;1914;-55
2023/05/31 00:51:42;;;;;;;;;;;;;;;16.15;57.54;100751.22;5078561;28;1023;-54
2023/05/31 00:54:07;;;;;;;;;;;;;;;16.38;58.72;100755.38;5078823;28;1038;-54
2023/05/31 00:56:33;;;;;;;;;;;;;;;17.50;58.79;100755.56;5083399;28;1063;-55
2023/05/31 00:58:58;;;;;;;;;;;;;;;16.82;59.26;100750.44;5060663;28;1100;-55
2023/05/31 01:01:26;;;;;;;;;;;;;;;16.53;58.59;100753.72;5060378;28;1110;-55
2023/05/31 01:03:56;;;;;;;;;;;;;;;16.35;58.29;100758.66;5060964;28;1035;-55
2023/05/31 01:06:23;;;;;;;;;;;;;;;16.25;57.70;100758.63;5078127;28;1551;-54
2023/05/31 01:08:50;;;;;;;;;;;;;;;16.72;59.28;100754.84;5070079;28;1155;-56
2023/05/31 01:11:37;;;;;;;;;;;;;;;17.47;58.76;100760.78;5067008;28;1161;-55
2023/05/31 01:14:22;;;;;;;;;;;;;;;16.76;58.77;100757.88;5078062;28;1133;-56
2023/05/31 01:16:52;;;;;;;;;;;;;;;16.48;58.28;100750.97;5068217;28;1197;-55
2023/05/31 01:19:20;;;;;;;;;;;;;;;16.38;57.70;100763.59;5075362;28;1084;-55
2023/05/31 01:22:15;;;;;;;;;;;;;;;16.25;57.68;100758.63;5065576;28;939;-56
2023/05/31 01:24:43;;;;;;;;;;;;;;;16.14;57.31;100748.75;5043494;28;1308;-56
2023/05/31 01:27:09;;;;;;;;;;;;;;;17.11;59.31;100756.22;5042970;28;1256;-55
2023/05/31 01:29:35;;;;;;;;;;;;;;;17.21;58.90;100753.44;5059892;28;1907;-56
2023/05/31 01:32:00;;;;;;;;;;;;;;;16.67;59.17;100754.81;5075474;28;1074;-56
2023/05/31 01:34:26;;;;;;;;;;;;;;;16.48;58.49;100749.06;5066410;28;1051;-53
2023/05/31 01:36:51;;;;;;;;;;;;;;;16.38;57.79;100757.28;5078003;28;1039;-55
2023/05/31 01:39:17;;;;;;;;;;;;;;;16.25;57.56;100751.22;5071136;28;1596;-56
2023/05/31 01:41:43;;;;;;;;;;;;;;;16.16;57.39;100752.88;5077503;28;1130;-55
2023/05/31 01:44:09;;;;;;;;;;;;;;;17.01;59.44;100751.56;5079514;28;1133;-55
2023/05/31 01:46:34;;;;;;;;;;;;;;;17.19;59.05;100755.63;5083619;28;1217;-55
2023/05/31 01:49:00;;;;;;;;;;;;;;;16.68;59.14;100753.75;5088879;28;1983;-55
2023/05/31 01:51:27;;;;;;;;;;;;;;;16.46;58.27;100758.69;5077185;28;1107;-54
2023/05/31 01:53:52;;;;;;;;;;;;;;;16.38;57.83;100755.38;5059195;28;1062;-52
2023/05/31 01:56:19;;;;;;;;;;;;;;;16.19;57.73;100755.06;5059531;28;1278;-55
2023/05/31 01:58:47;;;;;;;;;;;;;;;16.41;58.88;100763.06;5047256;28;1110;-54
2023/05/31 02:01:12;;;;;;;;;;;;;;;17.51;58.83;100761.88;5042949;28;1201;-55
2023/05/31 02:03:38;;;;;;;;;;;;;;;16.86;59.06;100763.34;5059317;28;1582;-55
2023/05/31 02:06:04;;;;;;;;;;;;;;;16.56;58.43;100756.78;5058763;28;1292;-53
2023/05/31 02:08:29;;;;;;;;;;;;;;;16.39;58.08;100754.25;5062380;28;1104;-55
2023/05/31 02:10:55;;;;;;;;;;;;;;;16.27;57.59;100755.63;5063585;28;1925;-55
2023/05/31 02:13:22;;;;;;;;;;;;;;;16.11;57.70;100752.84;5076895;28;1030;-55
2023/05/31 02:15:48;;;;;;;;;;;;;;;16.88;59.39;100752.06;5059133;28;1399;-53
2023/05/31 02:18:16;;;;;;;;;;;;;;;17.27;58.91;100757.81;5058681;28;1117;-53
2023/05/31 02:20:44;;;;;;;;;;;;;;;16.71;58.92;100764.16;5060899;28;1131;-54
2023/05/31 02:23:16;;;;;;;;;;;;;;;16.42;58.67;100756.47;5058701;28;2066;-53
2023/05/31 02:25:44;;;;;;;;;;;;;;;16.32;58.08;100763.88;5076470;28;1106;-54
2023/05/31 02:28:10;;;;;;;;;;;;;;;16.20;57.71;100767.69;5076282;28;1464;-55
2023/05/31 02:30:36;;;;;;;;;;;;;;;16.16;57.29;100757.50;5058755;28;1974;-54
2023/05/31 02:33:02;;;;;;;;;;;;;;;17.18;59.19;100758.66;5083153;28;1199;-55
2023/05/31 02:35:27;;;;;;;;;;;;;;;17.18;58.91;100764.13;5079504;28;1026;-55
2023/05/31 02:37:53;;;;;;;;;;;;;;;16.72;58.78;100762.25;5076460;28;1019;-55
2023/05/31 02:40:18;;;;;;;;;;;;;;;16.49;58.52;100758.13;5058371;28;1108;-55
2023/05/31 02:42:44;;;;;;;;;;;;;;;16.33;57.88;100760.84;5076305;28;1082;-55
2023/05/31 02:45:09;;;;;;;;;;;;;;;16.23;57.59;100760.84;5062146;28;1254;-55
2023/05/31 02:47:38;;;;;;;;;;;;;;;16.20;57.36;100766.84;5058474;28;1261;-55
2023/05/31 02:50:05;;;;;;;;;;;;;;;17.35;59.14;100759.16;5058290;28;1975;-56
2023/05/31 02:52:31;;;;;;;;;;;;;;;16.98;59.17;100765.81;5058590;28;1206;-54
2023/05/31 02:55:20;;;;;;;;;;;;;;;16.61;58.81;100764.16;5047435;28;1143;-56
2023/05/31 02:58:06;;;;;;;;;;;;;;;16.38;58.05;100785.56;5086529;28;1168;-56
2023/05/31 03:00:34;;;;;;;;;;;;;;;16.31;57.85;100784.16;5057892;28;1635;-53
2023/05/31 03:03:00;;;;;;;;;;;;;;;16.21;57.73;100779.47;5058307;28;1400;-55
2023/05/31 03:05:49;;;;;;;;;;;;;;;16.41;58.69;100782.28;5062539;28;1159;-53
2023/05/31 03:08:14;;;;;;;;;;;;;;;17.52;58.84;100785.50;5058371;28;1321;-54
2023/05/31 03:10:40;;;;;;;;;;;;;;;16.83;59.28;100785.03;5048819;28;1906;-55
2023/05/31 03:13:05;;;;;;;;;;;;;;;16.54;58.64;100802.06;5076204;28;1265;-55
2023/05/31 03:15:31;;;;;;;;;;;;;;;16.41;58.01;100796.00;5054233;28;1286;-51
2023/05/31 03:17:57;;;;;;;;;;;;;;;16.24;57.88;100790.75;5048570;28;1739;-60
2023/05/31 03:20:22;;;;;;;;;;;;;;;16.19;57.39;100798.16;5057602;28;1323;-60
2023/05/31 03:22:48;;;;;;;;;;;;;;;16.10;57.36;100789.59;5065448;28;1512;-58
2023/05/31 03:25:14;;;;;;;;;;;;;;;16.90;59.29;100785.59;5062666;28;1560;-57
2023/05/31 03:27:40;;;;;;;;;;;;;;;17.52;58.40;100793.75;5075965;28;1058;-58
2023/05/31 03:30:06;;;;;;;;;;;;;;;16.82;59.01;100794.38;5057388;28;1910;-58
2023/05/31 03:32:38;;;;;;;;;;;;;;;16.57;58.64;100804.25;5057782;28;1283;-57
2023/05/31 03:35:04;;;;;;;;;;;;;;;16.40;57.97;100799.81;5061457;28;1307;-58
2023/05/31 03:37:30;;;;;;;;;;;;;;;16.35;57.71;100797.06;5058065;28;1180;-57
2023/05/31 03:40:04;;;;;;;;;;;;;;;16.22;57.44;100792.91;5076185;28;1234;-58
2023/05/31 03:42:31;;;;;;;;;;;;;;;16.61;59.10;100805.34;5058001;28;1170;-59
2023/05/31 03:44:57;;;;;;;;;;;;;;;17.71;58.59;100800.31;5058859;28;1111;-59
2023/05/31 03:47:22;;;;;;;;;;;;;;;16.96;59.10;100806.50;5066945;28;1196;-55
2023/05/31 03:49:48;;;;;;;;;;;;;;;16.66;58.62;100808.13;5057710;28;1966;-58
2023/05/31 03:52:13;;;;;;;;;;;;;;;16.49;58.06;100813.00;5075604;28;1114;-59
2023/05/31 03:54:39;;;;;;;;;;;;;;;16.38;57.89;100802.03;5048246;28;1185;-56
2023/05/31 03:57:05;;;;;;;;;;;;;;;16.30;57.63;100819.03;5044469;28;1314;-58
2023/05/31 03:59:31;;;;;;;;;;;;;;;16.18;57.48;100823.91;5052770;28;1221;-58
2023/05/31 04:01:57;;;;;;;;;;;;;;;16.14;57.45;100820.06;5059226;28;1383;-58
2023/05/31 04:04:25;;;;;;;;;;;;;;;17.04;59.33;100813.34;5049861;28;1212;-58
2023/05/31 04:06:52;;;;;;;;;;;;;;;17.31;58.83;100825.97;5055094;28;1541;-58
2023/05/31 04:09:17;;;;;;;;;;;;;;;16.73;59.14;100824.28;5047808;28;1985;-57
2023/05/31 04:11:43;;;;;;;;;;;;;;;16.55;58.61;100825.63;5054428;28;1236;-58
2023/05/31 04:14:09;;;;;;;;;;;;;;;16.42;58.10;100833.31;5048003;28;1133;-59
2023/05/31 04:16:35;;;;;;;;;;;;;;;16.35;58.06;100832.72;5058474;28;1119;-59
2023/05/31 04:19:01;;;;;;;;;;;;;;;16.26;57.77;100823.41;5060994;28;2068;-59
2023/05/31 04:21:27;;;;;;;;;;;;;;;16.21;57.39;100835.16;5051205;28;1260;-59
2023/05/31 04:23:53;;;;;;;;;;;;;;;16.92;59.11;100843.84;5069581;28;1193;-58
2023/05/31 04:26:18;;;;;;;;;;;;;;;17.23;59.22;100835.59;5060688;28;1110;-59
2023/05/31 04:28:51;;;;;;;;;;;;;;;16.71;59.28;100832.81;5061007;28;1213;-56
2023/05/31 04:31:17;;;;;;;;;;;;;;;16.54;58.86;100837.75;5060991;28;1974;-57
2023/05/31 04:33:44;;;;;;;;;;;;;;;16.38;58.53;100840.44;5058869;28;1170;-61
2023/05/31 04:36:10;;;;;;;;;;;;;;;16.29;58.13;100842.06;5048131;28;1256;-57
2023/05/31 04:38:36;;;;;;;;;;;;;;;16.19;58.03;100842.03;5061182;28;1240;-62
2023/05/31 04:41:03;;;;;;;;;;;;;;;16.11;57.69;100839.81;5078894;28;1154;-59
2023/05/31 04:43:29;;;;;;;;;;;;;;;17.09;59.23;100844.38;5060826;28;1322;-57
2023/05/31 04:45:55;;;;;;;;;;;;;;;17.06;59.04;100842.19;5049377;28;1319;-57
2023/05/31 04:48:21;;;;;;;;;;;;;;;16.61;59.13;100843.78;5043515;28;1293;-60
2023/05/31 04:50:48;;;;;;;;;;;;;;;16.41;58.82;100842.66;5040681;28;1973;-58
2023/05/31 04:53:14;;;;;;;;;;;;;;;16.31;58.60;100850.03;5060976;28;997;-64
2023/05/31 04:55:39;;;;;;;;;;;;;;;16.24;58.02;100861.25;5071352;28;1130;-57
2023/05/31 04:58:08;;;;;;;;;;;;;;;16.31;58.52;100861.00;5051528;28;1329;-57
2023/05/31 05:00:34;;;;;;;;;;;;;;;17.69;55.84;100860.25;5047089;28;1258;-56
2023/05/31 05:03:22;;;;;;;;;;;;;;;16.64;55.36;100856.97;5054469;28;1144;-58
2023/05/31 05:05:50;;;;;;;;;;;;;;;16.46;53.50;100849.25;5056901;28;1218;-58
2023/05/31 05:08:17;;;;;;;;;;;;;;;17.19;56.00;100859.22;5060295;28;1121;-62
2023/05/31 05:10:43;;;;;;;;;;;;;;;16.79;55.07;100856.16;5066829;28;1901;-59
2023/05/31 05:13:10;;;;;;;;;;;;;;;16.61;53.04;100854.75;5059115;28;1438;-56
2023/05/31 05:15:38;;;;;;;;;;;;;;;17.68;54.86;100855.03;5060190;28;1214;-57
2023/05/31 05:18:05;;;;;;;;;;;;;;;17.01;54.17;100863.34;5060361;28;1228;-56
2023/05/31 05:20:33;;;;;;;;;;;;;;;16.68;52.80;100858.06;5059757;28;1374;-55
2023/05/31 05:23:02;;;;;;;;;;;;;;;17.21;53.49;100857.84;5050523;28;1201;-53
2023/05/31 05:25:28;;;;;;;;;;;;;;;17.24;54.06;100851.81;5043981;28;1092;-55
2023/05/31 05:27:54;;;;;;;;;;;;;;;16.94;52.51;100858.13;5059993;28;1958;-53
2023/05/31 05:30:20;;;;;;;;;;;;;;;17.10;52.94;100872.69;5059831;28;1905;-63
2023/05/31 05:32:47;;;;;;;;;;;;;;;17.16;52.92;100865.28;5059784;28;1350;-56
2023/05/31 05:35:13;;;;;;;;;;;;;;;17.82;53.67;100872.56;5090131;28;1206;-60
2023/05/31 05:37:39;;;;;;;;;;;;;;;18.62;54.18;100876.38;5078345;28;1133;-57
2023/05/31 05:40:06;;;;;;;;;;;;;;;17.65;53.89;100880.34;5082466;28;1126;-57
2023/05/31 05:42:32;;;;;;;;;;;;;;;17.38;52.20;100873.25;5047539;28;1198;-58
2023/05/31 05:44:57;;;;;;;;;;;;;;;17.21;51.10;100881.78;5072329;28;1255;-59
2023/05/31 05:47:23;;;;;;;;;;;;;;;17.08;50.33;100881.22;5050537;28;1114;-59
2023/05/31 05:49:53;;;;;;;;;;;;;;;18.01;53.13;100883.03;5039453;28;1909;-58
2023/05/31 05:52:18;;;;;;;;;;;;;;;17.44;52.41;100872.94;5076064;28;1166;-57
2023/05/31 05:54:44;;;;;;;;;;;;;;;17.23;50.96;100871.31;5093946;28;1066;-56
2023/05/31 05:57:10;;;;;;;;;;;;;;;17.22;50.00;100872.41;5048565;28;1241;-61
2023/05/31 05:59:40;;;;;;;;;;;;;;;18.15;52.61;100875.81;5045619;28;1265;-58
2023/05/31 06:02:25;;;;;;;;;;;;;;;17.52;51.99;100868.00;5068911;28;1195;-58
2023/05/31 06:04:54;;;;;;;;;;;;;;;17.21;50.96;100879.03;5052348;28;1208;-56
2023/05/31 06:07:21;;;;;;;;;;;;;;;18.36;52.62;100868.28;5064551;28;1210;-54
2023/05/31 06:09:49;;;;;;;;;;;;;;;17.73;52.42;100869.59;5066188;28;1969;-53
2023/05/31 06:12:15;;;;;;;;;;;;;;;17.56;51.48;100866.34;5077353;28;1662;-55
2023/05/31 06:14:41;;;;;;;;;;;;;;;17.27;50.78;100864.97;5058960;28;1236;-59
2023/05/31 06:17:07;;;;;;;;;;;;;;;17.24;50.03;100867.47;5072679;28;1443;-59
2023/05/31 06:19:33;;;;;;;;;;;;;;;17.17;49.77;100866.94;5070276;28;953;-58
2023/05/31 06:21:59;;;;;;;;;;;;;;;17.18;49.57;100877.66;5069882;28;1120;-57
2023/05/31 06:24:25;;;;;;;;;;;;;;;17.95;51.21;100877.53;5078427;28;1154;-60
2023/05/31 06:26:51;;;;;;;;;;;;;;;17.36;51.40;100870.78;5072881;28;1265;-60
2023/05/31 06:29:17;;;;;;;;;;;;;;;17.31;50.19;100872.69;5065937;28;1917;-61
2023/05/31 06:31:56;;;;;;;;;;;;;;;17.16;49.63;100866.09;5074246;28;1052;-58
2023/05/31 06:34:22;;;;;;;;;;;;;;;17.13;48.93;100877.63;5056177;28;1204;-58
2023/05/31 06:36:50;;;;;;;;;;;;;;;17.05;48.80;100884.50;5038506;28;1278;-58
2023/05/31 06:39:16;;;;;;;;;;;;;;;17.02;48.36;100879.53;5066895;28;1127;-60
2023/05/31 06:41:42;;;;;;;;;;;;;;;17.28;49.19;100880.38;5078500;28;901;-60
2023/05/31 06:44:33;;;;;;;;;;;;;;;17.40;51.12;100882.84;5096078;28;1427;-61
2023/05/31 06:47:06;;;;;;;;;;;;;;;17.18;50.36;100879.56;5078080;28;1272;-59
2023/05/31 06:49:52;;;;;;;;;;;;;;;17.14;49.35;100879.28;5075024;28;1978;-57
2023/05/31 06:52:36;;;;;;;;;;;;;;;17.09;48.51;100882.03;5077642;28;1225;-57
2023/05/31 06:55:20;;;;;;;;;;;;;;;18.28;50.53;100879.88;5076768;28;1030;-57
2023/05/31 06:57:46;;;;;;;;;;;;;;;17.55;50.65;100872.94;5058694;28;1511;-59
2023/05/31 07:00:12;;;;;;;;;;;;;;;17.38;49.93;100884.22;5075114;28;870;-59
2023/05/31 07:02:37;;;;;;;;;;;;;;;17.26;49.12;100879.00;5058832;28;1120;-57
2023/05/31 07:05:03;;;;;;;;;;;;;;;17.15;48.86;100883.66;5054461;28;1257;-58
2023/05/31 07:07:29;;;;;;;;;;;;;;;17.16;48.01;100882.56;5084922;28;1205;-60
2023/05/31 07:09:55;;;;;;;;;;;;;;;16.98;48.37;100881.19;5080254;28;1917;-58
2023/05/31 07:12:21;;;;;;;;;;;;;;;16.91;47.89;100891.63;5077564;28;1432;-57
2023/05/31 07:14:47;;;;;;;;;;;;;;;17.73;50.14;100891.59;5077957;28;1110;-60
2023/05/31 07:17:13;;;;;;;;;;;;;;;17.31;50.00;100884.50;5065785;28;1197;-57
2023/05/31 07:19:42;;;;;;;;;;;;;;;17.25;49.09;100885.59;5053690;28;1464;-57
2023/05/31 07:22:08;;;;;;;;;;;;;;;17.16;48.32;100885.31;5087388;28;1430;-57
2023/05/31 07:24:33;;;;;;;;;;;;;;;17.04;48.17;100879.28;5075989;28;890;-57
2023/05/31 07:26:59;;;;;;;;;;;;;;;17.81;49.57;100881.97;5069036;28;1102;-57
2023/05/31 07:29:24;;;;;;;;;;;;;;;17.26;49.89;100887.25;5085298;28;1996;-57
2023/05/31 07:31:50;;;;;;;;;;;;;;;17.14;49.04;100883.94;5070255;28;1222;-56
2023/05/31 07:34:15;;;;;;;;;;;;;;;17.20;48.21;100878.19;5077793;28;1530;-56
2023/05/31 07:36:41;;;;;;;;;;;;;;;17.20;48.99;100878.19;5092618;28;848;-56
2023/05/31 07:39:10;;;;;;;;;;;;;;;17.07;48.74;100878.75;5085431;28;1058;-57
2023/05/31 07:41:36;;;;;;;;;;;;;;;17.09;48.10;100877.34;5099938;28;1047;-63
2023/05/31 07:44:02;;;;;;;;;;;;;;;17.04;47.55;100882.03;5099872;28;1072;-59
2023/05/31 07:46:28;;;;;;;;;;;;;;;17.83;49.28;100879.72;5085347;28;1229;-59
2023/05/31 07:48:54;;;;;;;;;;;;;;;17.33;49.75;100876.78;5087282;28;909;-55
2023/05/31 07:51:19;;;;;;;;;;;;;;;17.20;49.19;100877.38;5099459;28;1901;-55
2023/05/31 07:53:46;;;;;;;;;;;;;;;17.79;49.82;100879.50;5085799;28;1206;-57
2023/05/31 07:56:12;;;;;;;;;;;;;;;17.54;50.32;100876.78;5087767;28;1512;-59
2023/05/31 07:58:38;;;;;;;;;;;;;;;17.31;49.71;100878.19;5079393;28;1039;-56
2023/05/31 08:01:03;;;;;;;;;;;;;;;17.15;49.09;100885.59;5092795;28;929;-57
2023/05/31 08:03:30;;;;;;;;;;;;;;;17.16;48.72;100893.56;5068729;28;1527;-57
2023/05/31 08:05:55;;;;;;;;;;;;;;;17.94;50.28;100897.88;5072759;28;1122;-55
2023/05/31 08:08:21;;;;;;;;;;;;;;;17.55;49.95;100894.94;5092131;28;1141;-60
2023/05/31 08:10:46;;;;;;;;;;;;;;;17.37;49.24;100888.06;5093532;28;1953;-59
2023/05/31 08:13:12;;;;;;;;;;;;;;;17.31;48.40;100900.19;5091754;28;1023;-58
2023/05/31 08:15:38;;;;;;;;;;;;;;;17.26;48.03;100898.25;5065962;28;1202;-57
2023/05/31 08:18:03;;;;;;;;;;;;;;;17.10;48.06;100890.00;5065950;28;1265;-57
2023/05/31 08:20:29;;;;;;;;;;;;;;;18.00;49.07;100903.38;5075981;28;1362;-57
2023/05/31 08:22:54;;;;;;;;;;;;;;;17.54;49.65;100896.03;5068106;28;1281;-56
2023/05/31 08:25:20;;;;;;;;;;;;;;;17.40;48.81;100904.84;5060615;28;977;-57
2023/05/31 08:27:46;;;;;;;;;;;;;;;17.22;48.65;100899.88;5091023;28;1135;-56
2023/05/31 08:30:11;;;;;;;;;;;;;;;17.23;48.00;100893.31;5071283;28;1907;-57
2023/05/31 08:32:37;;;;;;;;;;;;;;;17.50;48.80;100895.78;5080670;28;1245;-57
2023/05/31 08:35:03;;;;;;;;;;;;;;;17.59;49.50;100896.84;5067360;28;1092;-59
2023/05/31 08:37:28;;;;;;;;;;;;;;;17.33;48.94;100904.28;5062573;28;1253;-57
2023/05/31 08:39:54;;;;;;;;;;;;;;;17.28;48.40;100896.06;5060804;28;1362;-57
2023/05/31 08:42:24;;;;;;;;;;;;;;;17.23;47.95;100893.31;5062931;28;1067;-60
2023/05/31 08:44:50;;;;;;;;;;;;;;;17.13;47.63;100904.31;5048701;28;1278;-58
2023/05/31 08:47:28;;;;;;;;;;;;;;;17.09;47.56;100906.75;5090148;28;1076;-57
2023/05/31 08:49:54;;;;;;;;;;;;;;;17.05;47.28;100908.41;5079228;28;1897;-61
2023/05/31 08:52:20;;;;;;;;;;;;;;;17.79;48.65;100890.50;5064812;28;1068;-62
2023/05/31 08:54:45;;;;;;;;;;;;;;;17.62;49.72;100895.47;5067505;28;894;-60
2023/05/31 08:57:11;;;;;;;;;;;;;;;17.43;48.83;100900.69;5058611;28;1215;-57
2023/05/31 08:59:37;;;;;;;;;;;;;;;17.25;48.41;100896.59;5068984;28;1024;-58
2023/05/31 09:02:02;;;;;;;;;;;;;;;17.19;48.06;100897.69;5070127;28;1120;-59
2023/05/31 09:04:28;;;;;;;;;;;;;;;17.26;47.78;100890.00;5097456;28;1038;-62
2023/05/31 09:06:53;;;;;;;;;;;;;;;17.18;47.53;100890.53;5070781;28;1268;-60
2023/05/31 09:09:19;;;;;;;;;;;;;;;17.55;47.43;100890.25;5069014;28;1902;-62
2023/05/31 09:11:45;;;;;;;;;;;;;;;17.24;47.65;100881.22;5066432;28;1158;-62
2023/05/31 09:14:10;;;;;;;;;;;;;;;17.16;47.59;100884.50;5078926;28;1421;-61
2023/05/31 09:16:36;;;;;;;;;;;;;;;17.06;47.28;100880.66;5062605;28;1264;-61
2023/05/31 09:19:05;;;;;;;;;;;;;;;17.08;47.08;100885.88;5077248;28;1015;-62
2023/05/31 09:21:40;;;;;;;;;;;;;;;17.05;47.19;100876.25;5067914;28;1202;-65
2023/05/31 09:24:05;;;;;;;;;;;;;;;17.14;47.25;100878.44;5069094;28;1160;-64
2023/05/31 09:26:32;;;;;;;;;;;;;;;17.51;48.61;100882.84;5066788;28;1003;-60
2023/05/31 09:28:58;;;;;;;;;;;;;;;17.34;48.33;100894.13;5077540;28;1162;-59
2023/05/31 09:31:23;;;;;;;;;;;;;;;17.19;47.90;100886.69;5077804;28;1909;-56
2023/05/31 09:33:50;;;;;;;;;;;;;;;17.99;49.08;100888.78;5080707;28;1067;-60
2023/05/31 09:36:23;;;;;;;;;;;;;;;17.44;49.26;100881.19;5083904;28;1204;-59
2023/05/31 09:38:50;;;;;;;;;;;;;;;17.42;48.48;100882.56;5072547;28;1125;-59
2023/05/31 09:41:15;;;;;;;;;;;;;;;17.31;48.00;100881.75;5068214;28;1206;-60
2023/05/31 09:43:41;;;;;;;;;;;;;;;17.16;47.74;100881.75;5066584;28;1318;-57
2023/05/31 09:46:19;;;;;;;;;;;;;;;17.16;47.54;100887.25;5062781;28;1288;-59
2023/05/31 09:48:45;;;;;;;;;;;;;;;17.12;47.40;100880.66;5080502;28;1087;-57
2023/05/31 09:51:11;;;;;;;;;;;;;;;17.12;47.08;100886.16;5077295;28;1975;-63
2023/05/31 09:53:40;;;;;;;;;;;;;;;18.06;48.38;100885.75;5077151;28;1065;-58
2023/05/31 09:56:10;;;;;;;;;;;;;;;17.42;49.10;100875.16;5059652;28;1371;-57
2023/05/31 09:58:36;;;;;;;;;;;;;;;17.22;48.54;100870.50;5051970;28;1232;-48
2023/05/31 10:01:02;;;;;;;;;;;;;;;17.22;48.01;100876.00;5080161;28;1107;-55
2023/05/31 10:03:28;;;;;;;;;;;;;;;17.13;47.65;100885.06;5097250;28;1058;-52
2023/05/31 10:05:53;;;;;;;;;;;;;;;17.15;47.08;100869.13;5085531;28;1019;-52
2023/05/31 10:08:19;;;;;;;;;;;;;;;17.06;47.17;100880.66;5076783;28;1079;-52
2023/05/31 10:10:44;;;;;;;;;;;;;;;17.12;47.36;100875.16;5076783;28;1907;-58
2023/05/31 10:13:10;;;;;;;;;;;;;;;17.95;48.65;100876.72;5083859;28;1030;-61
2023/05/31 10:15:35;;;;;;;;;;;;;;;17.41;48.95;100868.00;5070436;28;1198;-56
2023/05/31 10:18:01;;;;;;;;;;;;;;;17.28;48.69;100868.56;5065701;28;1198;-50
2023/05/31 10:20:38;;;;;;;;;;;;;;;17.29;48.03;100870.19;5089317;28;1146;-52
2023/05/31 10:23:05;;;;;;;;;;;;;;;17.23;47.61;100871.31;5091731;28;1103;-59
2023/05/31 10:25:49;;;;;;;;;;;;;;;17.12;47.53;100877.91;5087338;28;907;-57
2023/05/31 10:28:15;;;;;;;;;;;;;;;17.07;47.23;100871.31;5094759;28;1472;-59
2023/05/31 10:30:41;;;;;;;;;;;;;;;17.60;48.40;100862.75;5084909;28;1905;-60
2023/05/31 10:33:07;;;;;;;;;;;;;;;17.65;48.93;100861.91;5087102;28;1094;-58
2023/05/31 10:35:33;;;;;;;;;;;;;;;17.39;48.88;100870.22;5096707;28;1237;-59
2023/05/31 10:37:59;;;;;;;;;;;;;;;17.34;48.22;100861.97;5096104;28;905;-58
2023/05/31 10:40:30;;;;;;;;;;;;;;;17.27;47.62;100845.75;5074705;28;1019;-57
2023/05/31 10:43:24;;;;;;;;;;;;;;;17.14;47.69;100853.72;5076467;28;1443;-57
2023/05/31 10:45:51;;;;;;;;;;;;;;;17.50;47.84;100850.94;5043601;28;1118;-56
2023/05/31 10:48:29;;;;;;;;;;;;;;;17.74;48.97;100846.50;5080965;28;1158;-58
2023/05/31 10:50:55;;;;;;;;;;;;;;;17.45;48.48;100841.59;5077391;28;1910;-56
2023/05/31 10:53:21;;;;;;;;;;;;;;;17.39;47.94;100841.88;5068473;28;1266;-53
2023/05/31 10:55:47;;;;;;;;;;;;;;;17.22;47.69;100842.19;5056289;28;1123;-56
2023/05/31 10:58:31;;;;;;;;;;;;;;;17.28;47.14;100841.09;5056574;28;1075;-55
2023/05/31 11:00:57;;;;;;;;;;;;;;;17.21;47.06;100841.38;5058509;28;1258;-60
2023/05/31 11:03:23;;;;;;;;;;;;;;;17.14;47.03;100837.22;5064545;28;1250;-58
2023/05/31 11:05:56;;;;;;;;;;;;;;;17.09;46.94;100829.81;5063164;28;1222;-57
2023/05/31 11:08:21;;;;;;;;;;;;;;;17.05;46.80;100826.78;5073302;28;1265;-58
2023/05/31 11:10:48;;;;;;;;;;;;;;;17.03;46.57;100825.44;5061500;28;1902;-59
2023/05/31 11:13:13;;;;;;;;;;;;;;;16.98;46.91;100828.19;5056574;28;920;-59
2023/05/31 11:15:42;;;;;;;;;;;;;;;17.95;48.12;100833.50;5062066;28;1317;-59
2023/05/31 11:18:09;;;;;;;;;;;;;;;17.57;48.77;100830.31;5056170;28;1317;-58
2023/05/31 11:20:35;;;;;;;;;;;;;;;17.35;48.33;100833.38;5056415;28;1230;-57
2023/05/31 11:23:16;;;;;;;;;;;;;;;17.21;47.97;100827.63;5068412;28;1258;-55
2023/05/31 11:25:42;;;;;;;;;;;;;;;17.16;47.56;100835.88;5059076;28;1016;-56
2023/05/31 11:28:07;;;;;;;;;;;;;;;17.14;47.24;100835.34;5077109;28;1063;-58
2023/05/31 11:30:36;;;;;;;;;;;;;;;17.03;47.21;100845.50;5046763;28;1965;-59
2023/05/31 11:33:02;;;;;;;;;;;;;;;18.29;48.60;100843.00;5050174;28;1370;-58
2023/05/31 11:35:30;;;;;;;;;;;;;;;17.56;49.23;100841.59;5064245;28;1167;-61
2023/05/31 11:37:59;;;;;;;;;;;;;;;17.45;48.39;100849.84;5067211;28;942;-60
2023/05/31 11:40:25;;;;;;;;;;;;;;;18.06;49.46;100838.97;5073576;28;1074;-60
2023/05/31 11:42:51;;;;;;;;;;;;;;;17.59;49.19;100843.78;5076371;28;1104;-59
2023/05/31 11:45:20;;;;;;;;;;;;;;;17.48;48.59;100839.41;5075549;28;1047;-59
2023/05/31 11:48:00;;;;;;;;;;;;;;;17.43;47.89;100843.81;5076035;28;1241;-59
2023/05/31 11:50:26;;;;;;;;;;;;;;;17.84;48.80;100839.28;5060566;28;1910;-58
2023/05/31 11:52:54;;;;;;;;;;;;;;;17.72;48.90;100840.44;5061470;28;1023;-55
2023/05/31 11:55:20;;;;;;;;;;;;;;;17.49;48.49;100846.53;5042715;28;1079;-60
2023/05/31 11:57:46;;;;;;;;;;;;;;;17.37;48.02;100850.41;5069141;28;1032;-55
2023/05/31 12:00:12;;;;;;;;;;;;;;;17.28;47.32;100843.84;5074936;28;997;-58
2023/05/31 12:02:38;;;;;;;;;;;;;;;17.28;47.01;100852.09;5077749;28;855;-57
2023/05/31 12:05:04;;;;;;;;;;;;;;;17.47;47.79;100837.75;5075711;28;1133;-59
2023/05/31 12:07:30;;;;;;;;;;;;;;;17.94;48.95;100837.38;5075265;28;1157;-60
2023/05/31 12:09:55;;;;;;;;;;;;;;;17.54;48.69;100843.78;5075741;28;1977;-57
2023/05/31 12:12:21;;;;;;;;;;;;;;;17.47;48.10;100840.50;5089007;28;1182;-59
2023/05/31 12:14:54;;;;;;;;;;;;;;;17.28;47.76;100841.91;5078502;28;988;-58
2023/05/31 12:17:20;;;;;;;;;;;;;;;17.23;47.12;100844.66;5053293;28;1146;-58
2023/05/31 12:19:46;;;;;;;;;;;;;;;17.98;48.66;100834.88;5075665;28;1102;-57
2023/05/31 12:22:12;;;;;;;;;;;;;;;17.50;48.63;100845.44;5077780;28;1142;-58
2023/05/31 12:24:37;;;;;;;;;;;;;;;17.38;48.18;100838.31;5079031;28;1107;-54
2023/05/31 12:27:05;;;;;;;;;;;;;;;17.43;47.67;100848.47;5064150;28;1280;-56
2023/05/31 12:29:30;;;;;;;;;;;;;;;17.32;47.25;100841.34;5054768;28;1972;-63
2023/05/31 12:32:05;;;;;;;;;;;;;;;17.21;47.05;100835.88;5078997;28;1059;-59
2023/05/31 12:34:35;;;;;;;;;;;;;;;17.77;48.35;100842.34;5079056;28;1121;-55
2023/05/31 12:37:07;;;;;;;;;;;;;;;17.44;48.29;100850.94;5079241;28;1078;-54
2023/05/31 12:39:33;;;;;;;;;;;;;;;17.34;47.66;100845.47;5066394;28;1214;-57
2023/05/31 12:41:59;;;;;;;;;;;;;;;17.19;47.69;100835.31;5061255;28;1312;-61
2023/05/31 12:44:24;;;;;;;;;;;;;;;17.17;47.21;100839.44;5057139;28;1155;-55
2023/05/31 12:46:50;;;;;;;;;;;;;;;17.94;47.96;100842.06;5078792;28;1392;-57
2023/05/31 12:49:26;;;;;;;;;;;;;;;17.84;48.94;100836.53;5080519;28;1098;-59